createdAt,value
2022-12-18T00:02:09.730Z,-8.50
2022-12-18T00:07:25.287Z,-8.51
2022-12-18T00:09:56.199Z,-8.47
2022-12-18T00:17:59.880Z,-8.78
2022-12-18T00:20:44.717Z,-8.73
2022-12-18T00:23:14.013Z,-8.89
2022-12-18T00:25:45.965Z,-9.05
2022-12-18T00:28:13.838Z,-8.90
2022-12-18T00:30:42.733Z,-8.93
2022-12-18T00:33:19.292Z,-8.87
2022-12-18T00:38:37.275Z,-8.72
2022-12-18T00:41:10.762Z,-8.43
2022-12-18T00:43:40.653Z,-8.07
2022-12-18T00:48:51.679Z,-7.69
2022-12-18T00:51:19.597Z,-7.55
2022-12-18T00:54:03.594Z,-7.63
2022-12-18T00:56:37.361Z,-7.98
2022-12-18T00:59:09.056Z,-7.98
2022-12-18T01:01:46.109Z,-8.11
2022-12-18T01:04:14.463Z,-8.18
2022-12-18T01:06:45.227Z,-8.23
2022-12-18T01:09:16.294Z,-8.27
2022-12-18T01:11:45.574Z,-8.36
2022-12-18T01:14:16.228Z,-8.49
2022-12-18T01:19:34.388Z,-8.79
2022-12-18T01:22:07.199Z,-8.68
2022-12-18T01:24:39.066Z,-8.67
2022-12-18T01:35:44.694Z,-8.56
2022-12-18T01:38:12.996Z,-8.56
2022-12-18T01:40:43.073Z,-8.65
2022-12-18T01:43:18.886Z,-8.85
2022-12-18T01:45:50.696Z,-8.84
2022-12-18T01:48:21.735Z,-8.67
2022-12-18T01:50:52.823Z,-8.59
2022-12-18T01:53:26.992Z,-8.49
2022-12-18T01:58:46.688Z,-8.42
2022-12-18T02:01:18.691Z,-8.47
2022-12-18T02:04:02.547Z,-8.60
2022-12-18T02:06:36.486Z,-8.67
2022-12-18T02:09:13.232Z,-8.62
2022-12-18T02:11:49.600Z,-8.71
2022-12-18T02:14:30.517Z,-8.74
2022-12-18T02:20:07.272Z,-8.59
2022-12-18T02:25:32.693Z,-8.70
2022-12-18T02:28:12.205Z,-8.60
2022-12-18T02:30:46.959Z,-8.62
2022-12-18T02:33:18.524Z,-8.59
2022-12-18T02:35:50.325Z,-8.51
2022-12-18T02:38:19.979Z,-8.72
2022-12-18T02:40:53.664Z,-8.83
2022-12-18T02:43:41.676Z,-8.83
2022-12-18T02:46:29.484Z,-8.87
2022-12-18T02:49:07.153Z,-8.71
2022-12-18T02:51:50.167Z,-8.50
2022-12-18T02:54:23.683Z,-8.46
2022-12-18T02:56:58.493Z,-8.57
2022-12-18T02:59:47.480Z,-8.57
2022-12-18T03:02:22.754Z,-8.67
2022-12-18T03:05:03.118Z,-8.67
2022-12-18T03:07:37.553Z,-8.59
2022-12-18T03:10:11.032Z,-8.56
2022-12-18T03:12:42.805Z,-8.52
2022-12-18T03:15:22.794Z,-8.52
2022-12-18T03:18:05.098Z,-8.59
2022-12-18T03:20:36.650Z,-8.69
2022-12-18T03:23:11.292Z,-8.65
2022-12-18T03:25:43.048Z,-8.70
2022-12-18T03:28:13.269Z,-8.75
2022-12-18T03:30:49.189Z,-8.74
2022-12-18T03:33:23.112Z,-8.82
2022-12-18T03:35:57.326Z,-8.94
2022-12-18T03:38:26.245Z,-8.96
2022-12-18T03:40:59.443Z,-8.99
2022-12-18T03:43:38.927Z,-9.04
2022-12-18T03:46:24.638Z,-9.07
2022-12-18T03:51:49.373Z,-9.01
2022-12-18T03:54:21.605Z,-8.94
2022-12-18T03:57:03.268Z,-8.80
2022-12-18T03:59:40.700Z,-8.84
2022-12-18T04:02:13.953Z,-8.72
2022-12-18T04:05:01.280Z,-8.59
2022-12-18T04:07:37.024Z,-8.42
2022-12-18T04:10:12.276Z,-8.42
2022-12-18T04:12:47.217Z,-8.44
2022-12-18T04:15:20.634Z,-8.51
2022-12-18T04:18:02.140Z,-8.55
2022-12-18T04:20:38.432Z,-8.56
2022-12-18T04:23:12.072Z,-8.47
2022-12-18T04:25:42.714Z,-8.46
2022-12-18T04:28:28.308Z,-8.45
2022-12-18T04:30:57.760Z,-8.38
2022-12-18T04:33:53.643Z,-8.31
2022-12-18T04:36:27.315Z,-8.34
2022-12-18T04:38:59.372Z,-8.26
2022-12-18T04:41:29.746Z,-8.26
2022-12-18T04:44:07.090Z,-8.37
2022-12-18T04:46:42.373Z,-8.46
2022-12-18T04:49:15.651Z,-8.55
2022-12-18T04:51:53.434Z,-8.54
2022-12-18T04:54:22.428Z,-8.39
2022-12-18T04:56:52.584Z,-8.20
2022-12-18T04:59:28.479Z,-8.15
2022-12-18T05:02:00.477Z,-8.32
2022-12-18T05:07:16.785Z,-8.43
2022-12-18T05:09:48.194Z,-8.43
2022-12-18T05:12:18.032Z,-8.40
2022-12-18T05:14:48.199Z,-8.49
2022-12-18T05:17:20.297Z,-8.46
2022-12-18T05:19:54.561Z,-8.50
2022-12-18T05:22:24.944Z,-8.54
2022-12-18T05:24:53.878Z,-8.64
2022-12-18T05:27:24.378Z,-8.67
2022-12-18T05:29:52.646Z,-8.74
2022-12-18T05:32:22.234Z,-8.76
2022-12-18T05:34:57.035Z,-8.72
2022-12-18T05:37:57.014Z,-8.67
2022-12-18T05:40:25.308Z,-8.74
2022-12-18T05:42:54.949Z,-8.77
2022-12-18T05:45:23.525Z,-8.84
2022-12-18T05:47:53.469Z,-8.90
2022-12-18T05:50:26.843Z,-8.82
2022-12-18T05:52:55.209Z,-8.78
2022-12-18T05:55:26.008Z,-8.77
2022-12-18T05:57:56.122Z,-8.71
2022-12-18T06:00:38.407Z,-8.71
2022-12-18T06:03:08.996Z,-8.72
2022-12-18T06:05:55.940Z,-8.77
2022-12-18T06:08:49.872Z,-8.69
2022-12-18T06:11:20.504Z,-8.71
2022-12-18T06:13:53.556Z,-8.67
2022-12-18T06:16:27.995Z,-8.46
2022-12-18T06:19:01.868Z,-8.57
2022-12-18T06:21:35.862Z,-8.56
2022-12-18T06:26:54.273Z,-8.81
2022-12-18T06:29:23.238Z,-8.86
2022-12-18T06:31:53.808Z,-8.96
2022-12-18T06:34:42.229Z,-8.87
2022-12-18T06:37:14.828Z,-8.67
2022-12-18T06:39:46.878Z,-8.56
2022-12-18T06:42:20.438Z,-8.45
2022-12-18T06:44:49.092Z,-8.42
2022-12-18T06:47:18.253Z,-8.21
2022-12-18T06:49:50.552Z,-8.19
2022-12-18T06:52:30.344Z,-8.05
2022-12-18T06:55:00.711Z,-8.03
2022-12-18T06:57:28.841Z,-7.87
2022-12-18T07:00:11.329Z,-7.77
2022-12-18T07:02:41.319Z,-7.73
2022-12-18T07:08:12.952Z,-7.50
2022-12-18T07:10:58.945Z,-7.36
2022-12-18T07:13:28.313Z,-7.26
2022-12-18T07:15:57.717Z,-7.28
2022-12-18T07:18:32.290Z,-7.22
2022-12-18T07:21:14.529Z,-7.22
2022-12-18T07:23:51.622Z,-7.23
2022-12-18T07:29:09.300Z,-7.20
2022-12-18T07:31:45.497Z,-7.19
2022-12-18T07:34:29.868Z,-7.30
2022-12-18T07:39:55.856Z,-7.46
2022-12-18T07:42:53.288Z,-7.33
2022-12-18T07:45:38.308Z,-7.46
2022-12-18T07:54:26.848Z,-7.21
2022-12-18T07:57:09.930Z,-7.17
2022-12-18T07:59:55.802Z,-7.56
2022-12-18T08:02:25.507Z,-7.63
2022-12-18T08:05:02.053Z,-7.67
2022-12-18T08:07:30.650Z,-7.46
2022-12-18T08:10:01.566Z,-7.31
2022-12-18T08:18:35.783Z,-6.91
2022-12-18T08:21:22.827Z,-6.88
2022-12-18T08:24:08.031Z,-7.00
2022-12-18T08:27:20.951Z,-6.73
2022-12-18T08:29:53.011Z,-6.47
2022-12-18T08:32:23.789Z,-6.46
2022-12-18T08:34:53.350Z,-6.47
2022-12-18T08:37:28.730Z,-6.55
2022-12-18T08:40:06.738Z,-6.48
2022-12-18T08:42:52.086Z,-6.29
2022-12-18T08:45:24.085Z,-5.90
2022-12-18T08:47:55.847Z,-5.53
2022-12-18T08:50:25.608Z,-5.28
2022-12-18T08:52:55.158Z,-4.94
2022-12-18T08:55:27.685Z,-4.73
2022-12-18T08:57:56.372Z,-4.33
2022-12-18T09:00:29.669Z,-4.19
2022-12-18T09:02:58.534Z,-4.56
2022-12-18T09:05:33.028Z,-5.66
2022-12-18T09:08:04.436Z,-5.85
2022-12-18T09:10:43.367Z,-4.99
2022-12-18T09:13:24.278Z,-4.49
2022-12-18T09:16:01.775Z,-4.58
2022-12-18T09:18:31.177Z,-4.78
2022-12-18T09:21:06.100Z,-4.06
2022-12-18T09:23:44.324Z,-4.09
2022-12-18T09:26:17.761Z,-3.52
2022-12-18T09:28:46.290Z,-3.46
2022-12-18T09:31:21.695Z,-3.76
2022-12-18T09:36:37.342Z,-1.54
2022-12-18T09:39:08.639Z,-0.87
2022-12-18T09:41:47.199Z,-0.32
2022-12-18T09:44:47.690Z,0.59
2022-12-18T09:51:02.246Z,0.18
2022-12-18T09:53:36.691Z,-0.12
2022-12-18T09:56:07.007Z,-0.60
2022-12-18T09:59:02.632Z,-0.60
2022-12-18T10:01:40.175Z,-0.03
2022-12-18T10:04:21.261Z,-0.14
2022-12-18T10:07:09.109Z,-0.32
2022-12-18T10:10:03.308Z,-1.13
2022-12-18T10:12:35.846Z,-1.04
2022-12-18T10:15:08.558Z,-0.28
2022-12-18T10:17:41.071Z,0.09
2022-12-18T10:20:17.352Z,0.33
2022-12-18T10:22:50.382Z,0.61
2022-12-18T10:25:23.723Z,0.26
2022-12-18T10:27:54.645Z,-0.05
2022-12-18T10:30:28.338Z,-0.57
2022-12-18T10:32:57.387Z,-0.21
2022-12-18T10:35:29.114Z,-0.10
2022-12-18T10:38:06.188Z,-0.13
2022-12-18T10:40:51.837Z,-0.56
2022-12-18T10:43:27.434Z,-1.38
2022-12-18T10:46:04.609Z,-2.05
2022-12-18T10:48:34.106Z,-1.75
2022-12-18T10:51:13.710Z,-1.74
2022-12-18T10:53:44.476Z,-1.43
2022-12-18T10:56:21.928Z,-1.70
2022-12-18T10:59:08.590Z,-1.72
2022-12-18T11:01:49.025Z,-1.73
2022-12-18T11:04:21.987Z,-1.22
2022-12-18T11:07:01.378Z,-0.96
2022-12-18T11:09:34.454Z,-0.66
2022-12-18T11:12:05.170Z,0.19
2022-12-18T11:14:36.439Z,0.37
2022-12-18T11:17:25.393Z,0.22
2022-12-18T11:19:56.444Z,0.87
2022-12-18T11:22:33.421Z,1.60
2022-12-18T11:30:51.170Z,1.08
2022-12-18T11:36:11.949Z,1.32
2022-12-18T11:39:18.386Z,0.94
2022-12-18T11:42:28.452Z,1.42
2022-12-18T11:45:08.455Z,1.22
2022-12-18T11:47:42.824Z,1.78
2022-12-18T11:50:21.075Z,2.04
2022-12-18T11:52:56.705Z,1.87
2022-12-18T11:55:45.554Z,2.22
2022-12-18T11:58:26.404Z,2.06
2022-12-18T12:01:06.576Z,2.62
2022-12-18T12:03:56.400Z,2.13
2022-12-18T12:06:32.520Z,1.50
2022-12-18T12:11:57.367Z,0.98
2022-12-18T12:14:31.070Z,0.99
2022-12-18T12:17:01.518Z,0.64
2022-12-18T12:19:40.544Z,1.33
2022-12-18T12:25:07.128Z,0.15
2022-12-18T12:27:45.047Z,0.02
2022-12-18T12:30:23.390Z,-0.10
2022-12-18T12:33:03.189Z,-0.28
2022-12-18T12:35:35.352Z,-0.56
2022-12-18T12:38:21.674Z,-0.07
2022-12-18T12:41:02.115Z,0.56
2022-12-18T12:43:49.232Z,0.49
2022-12-18T12:49:18.919Z,0.76
2022-12-18T12:57:24.979Z,0.11
2022-12-18T13:00:05.719Z,-0.04
2022-12-18T13:02:50.406Z,0.24
2022-12-18T13:05:32.585Z,0.15
2022-12-18T13:08:03.695Z,0.05
2022-12-18T13:11:19.833Z,0.16
2022-12-18T13:13:52.028Z,-0.46
2022-12-18T13:16:41.828Z,-0.66
2022-12-18T13:19:23.939Z,-0.29
2022-12-18T13:21:59.465Z,-0.41
2022-12-18T13:24:29.049Z,-1.05
2022-12-18T13:27:01.342Z,-1.37
2022-12-18T13:29:54.292Z,-1.07
2022-12-18T13:32:31.629Z,-1.04
2022-12-18T13:35:23.709Z,-1.18
2022-12-18T13:37:59.607Z,-1.62
2022-12-18T13:40:55.435Z,-1.63
2022-12-18T13:46:25.769Z,-1.58
2022-12-18T13:49:03.917Z,-1.61
2022-12-18T13:51:34.301Z,-1.69
2022-12-18T13:54:06.530Z,-1.57
2022-12-18T13:56:35.908Z,-1.65
2022-12-18T13:59:25.110Z,-1.78
2022-12-18T14:01:55.325Z,-2.02
2022-12-18T14:04:30.753Z,-2.10
2022-12-18T14:07:09.224Z,-2.10
2022-12-18T14:10:12.271Z,-2.21
2022-12-18T14:13:03.804Z,-2.01
2022-12-18T14:15:43.875Z,-2.12
2022-12-18T14:18:22.902Z,-1.98
2022-12-18T14:21:02.549Z,-1.83
2022-12-18T14:23:42.562Z,-1.88
2022-12-18T14:26:43.488Z,-1.96
2022-12-18T14:32:18.983Z,-2.08
2022-12-18T14:34:56.765Z,-2.06
2022-12-18T14:37:55.430Z,-2.11
2022-12-18T14:54:40.962Z,-2.08
2022-12-18T15:05:11.306Z,-2.05
2022-12-18T15:07:45.131Z,-2.27
2022-12-18T15:10:14.702Z,-2.49
2022-12-18T15:12:56.642Z,-2.51
2022-12-18T15:15:47.302Z,-2.68
2022-12-18T15:28:35.625Z,-2.50
2022-12-18T15:31:37.235Z,-2.38
2022-12-18T15:40:06.310Z,-2.38
2022-12-18T15:52:03.201Z,-1.97
2022-12-18T15:54:49.757Z,-2.03
2022-12-18T16:03:56.810Z,-2.09
2022-12-18T16:07:14.455Z,-2.03
2022-12-18T16:18:18.872Z,-1.41
2022-12-18T16:21:03.849Z,-1.74
2022-12-18T16:23:39.269Z,-1.64
2022-12-18T16:26:28.784Z,-1.84
2022-12-18T16:29:09.736Z,-1.86
2022-12-18T16:34:35.909Z,-1.66
2022-12-18T16:37:06.736Z,-1.87
2022-12-18T16:42:39.337Z,-1.67
2022-12-18T16:45:08.064Z,-1.48
2022-12-18T16:47:36.722Z,-1.39
2022-12-18T16:50:08.137Z,-1.37
2022-12-18T16:52:36.331Z,-1.31
2022-12-18T16:55:05.085Z,-1.26
2022-12-18T16:57:35.664Z,-1.28
2022-12-18T17:03:00.131Z,-1.16
2022-12-18T17:08:13.202Z,-0.95
2022-12-18T17:10:42.496Z,-0.95
2022-12-18T17:13:25.881Z,-1.01
2022-12-18T17:15:58.110Z,-1.12
2022-12-18T17:18:31.200Z,-1.15
2022-12-18T17:21:01.163Z,-1.14
2022-12-18T17:23:37.009Z,-1.07
2022-12-18T17:26:07.731Z,-0.99
2022-12-18T17:28:40.169Z,-0.76
2022-12-18T17:31:13.626Z,-0.67
2022-12-18T17:33:43.762Z,-0.80
2022-12-18T17:36:14.632Z,-0.87
2022-12-18T17:38:51.180Z,-0.87
2022-12-18T17:44:07.457Z,-0.81
2022-12-18T17:46:49.917Z,-0.85
2022-12-18T17:49:18.470Z,-1.09
2022-12-18T17:51:50.806Z,-0.95
2022-12-18T17:54:23.102Z,-0.86
2022-12-18T17:56:53.566Z,-0.79
2022-12-18T18:13:06.271Z,-0.17
2022-12-18T18:22:11.697Z,-0.44
2022-12-18T18:36:37.242Z,0.12
2022-12-18T18:39:30.691Z,0.18
2022-12-18T18:42:01.650Z,0.08
2022-12-18T20:38:27.130Z,-0.93
2022-12-18T20:58:34.306Z,-0.02
2022-12-18T21:16:09.686Z,-0.27
2022-12-18T21:42:34.945Z,-0.49
2022-12-18T21:45:42.183Z,-0.66
2022-12-18T21:57:21.039Z,-0.59
2022-12-18T22:03:17.685Z,-0.38
2022-12-18T22:09:04.258Z,-0.06
2022-12-18T22:24:09.985Z,0.57
2022-12-18T22:29:59.362Z,0.78
2022-12-18T22:39:01.360Z,0.79
2022-12-18T22:41:39.852Z,0.74
2022-12-18T22:44:17.487Z,0.82
2022-12-18T22:47:11.382Z,0.68
2022-12-18T23:36:23.589Z,1.24
2022-12-18T23:42:01.606Z,1.30
